createdAt,value
2023-03-11T00:00:55.062Z,95185.22
2023-03-11T00:03:24.749Z,95196.97
2023-03-11T00:05:53.748Z,95195.28
2023-03-11T00:08:23.421Z,95201.16
2023-03-11T00:10:55.543Z,95203.69
2023-03-11T00:13:22.894Z,95214.63
2023-03-11T00:15:51.680Z,95210.41
2023-03-11T00:18:18.405Z,95226.38
2023-03-11T00:20:46.800Z,95217.06
2023-03-11T00:23:15.211Z,95230.50
2023-03-11T00:25:44.467Z,95228.84
2023-03-11T00:28:11.642Z,95240.63
2023-03-11T00:30:40.184Z,95243.16
2023-03-11T00:33:08.112Z,95244.03
2023-03-11T00:35:35.400Z,95249.88
2023-03-11T00:38:06.911Z,95254.94
2023-03-11T00:40:36.350Z,95275.09
2023-03-11T00:43:03.932Z,95263.31
2023-03-11T00:45:31.203Z,95269.19
2023-03-11T00:47:58.139Z,95274.16
2023-03-11T00:50:28.934Z,95276.66
2023-03-11T00:52:55.440Z,95281.75
2023-03-11T00:55:32.885Z,95278.41
2023-03-11T00:58:03.084Z,95288.50
2023-03-11T01:00:30.766Z,95298.56
2023-03-11T01:02:58.014Z,95296.06
2023-03-11T01:05:28.411Z,95304.44
2023-03-11T01:07:54.942Z,95315.38
2023-03-11T01:10:21.512Z,95310.25
2023-03-11T01:12:48.015Z,95305.16
2023-03-11T01:15:28.121Z,95311.94
2023-03-11T01:17:54.544Z,95318.66
2023-03-11T01:20:21.591Z,95308.50
2023-03-11T01:22:49.042Z,95316.94
2023-03-11T01:25:17.786Z,95310.97
2023-03-11T01:27:44.843Z,95316.06
2023-03-11T01:30:15.806Z,95320.25
2023-03-11T01:32:43.985Z,95321.06
2023-03-11T01:35:15.152Z,95327.72
2023-03-11T01:37:41.951Z,95337.88
2023-03-11T01:40:33.732Z,95341.28
2023-03-11T01:43:01.091Z,95345.41
2023-03-11T01:45:40.766Z,95335.31
2023-03-11T01:48:10.927Z,95346.22
2023-03-11T01:50:43.612Z,95347.91
2023-03-11T01:53:11.160Z,95341.97
2023-03-11T01:55:38.423Z,95328.50
2023-03-11T01:58:10.704Z,95333.44
2023-03-11T02:00:37.958Z,95336.03
2023-03-11T02:03:14.760Z,95342.72
2023-03-11T02:05:41.823Z,95338.44
2023-03-11T02:08:08.874Z,95342.66
2023-03-11T02:10:38.777Z,95346.06
2023-03-11T02:13:05.284Z,95353.59
2023-03-11T02:15:31.748Z,95366.22
2023-03-11T02:18:01.935Z,95372.06
2023-03-11T02:20:49.499Z,95362.81
2023-03-11T02:23:18.655Z,95369.50
2023-03-11T02:25:54.528Z,95382.97
2023-03-11T02:28:22.000Z,95366.06
2023-03-11T02:30:50.329Z,95375.28
2023-03-11T02:33:18.642Z,95374.41
2023-03-11T02:35:45.217Z,95375.28
2023-03-11T02:38:11.653Z,95376.91
2023-03-11T02:40:46.257Z,95376.03
2023-03-11T02:43:18.008Z,95376.09
2023-03-11T02:45:47.124Z,95367.66
2023-03-11T02:48:15.401Z,95373.47
2023-03-11T02:50:42.076Z,95387.00
2023-03-11T02:53:08.504Z,95370.16
2023-03-11T02:55:35.013Z,95365.88
2023-03-11T02:58:01.490Z,95381.03
2023-03-11T03:00:27.996Z,95384.38
2023-03-11T03:02:54.867Z,95377.66
2023-03-11T03:05:22.758Z,95388.59
2023-03-11T03:07:50.347Z,95389.38
2023-03-11T03:10:17.680Z,95381.72
2023-03-11T03:12:44.194Z,95398.47
2023-03-11T03:15:11.985Z,95412.78
2023-03-11T03:17:39.653Z,95405.19
2023-03-11T03:20:11.233Z,95414.34
2023-03-11T03:22:38.951Z,95409.28
2023-03-11T03:25:06.507Z,95424.44
2023-03-11T03:27:34.104Z,95425.28
2023-03-11T03:30:00.647Z,95428.63
2023-03-11T03:32:27.398Z,95433.78
2023-03-11T03:34:58.962Z,95435.44
2023-03-11T03:37:27.333Z,95432.00
2023-03-11T03:39:54.776Z,95436.97
2023-03-11T03:42:21.871Z,95435.25
2023-03-11T03:44:48.293Z,95445.22
2023-03-11T03:47:14.816Z,95443.53
2023-03-11T03:49:41.445Z,95445.19
2023-03-11T03:52:08.720Z,95446.81
2023-03-11T03:54:35.160Z,95447.53
2023-03-11T03:57:02.132Z,95450.97
2023-03-11T03:59:28.889Z,95458.53
2023-03-11T04:01:55.445Z,95457.69
2023-03-11T04:04:22.506Z,95470.28
2023-03-11T04:06:49.369Z,95465.94
2023-03-11T04:09:16.012Z,95475.28
2023-03-11T04:11:43.514Z,95468.56
2023-03-11T04:14:10.262Z,95469.38
2023-03-11T04:16:36.959Z,95477.81
2023-03-11T04:19:04.684Z,95481.06
2023-03-11T04:21:32.349Z,95491.91
2023-03-11T04:23:59.357Z,95490.88
2023-03-11T04:26:25.939Z,95494.25
2023-03-11T04:28:52.487Z,95498.41
2023-03-11T04:31:19.084Z,95494.25
2023-03-11T04:33:45.552Z,95506.75
2023-03-11T04:36:12.825Z,95510.06
2023-03-11T04:38:39.584Z,95507.63
2023-03-11T04:41:07.491Z,95505.91
2023-03-11T04:43:34.312Z,95502.50
2023-03-11T04:46:00.841Z,95502.41
2023-03-11T04:48:27.581Z,95507.34
2023-03-11T04:50:55.484Z,95506.41
2023-03-11T04:53:23.073Z,95512.25
2023-03-11T04:55:50.468Z,95516.41
2023-03-11T04:58:17.005Z,95515.53
2023-03-11T05:00:43.381Z,95533.91
2023-03-11T05:03:09.913Z,95527.94
2023-03-11T05:05:37.558Z,95540.53
2023-03-11T05:08:04.155Z,95535.41
2023-03-11T05:10:31.985Z,95548.72
2023-03-11T05:12:58.978Z,95553.84
2023-03-11T05:15:25.421Z,95560.56
2023-03-11T05:17:53.861Z,95565.50
2023-03-11T05:20:21.322Z,95568.00
2023-03-11T05:22:47.756Z,95570.50
2023-03-11T05:25:14.393Z,95582.28
2023-03-11T05:27:40.971Z,95586.47
2023-03-11T05:30:10.373Z,95587.16
2023-03-11T05:32:37.029Z,95582.22
2023-03-11T05:35:03.646Z,95593.88
2023-03-11T05:37:32.233Z,95591.25
2023-03-11T05:39:58.788Z,95594.63
2023-03-11T05:42:25.413Z,95606.34
2023-03-11T05:44:51.952Z,95596.97
2023-03-11T05:47:20.562Z,95612.09
2023-03-11T05:49:48.765Z,95591.88
2023-03-11T05:52:15.889Z,95611.19
2023-03-11T05:54:42.451Z,95612.69
2023-03-11T05:57:08.858Z,95611.66
2023-03-11T05:59:37.542Z,95608.25
2023-03-11T06:02:04.198Z,95615.78
2023-03-11T06:04:31.112Z,95611.56
2023-03-11T06:06:57.778Z,95615.09
2023-03-11T06:09:24.249Z,95615.22
2023-03-11T06:11:50.668Z,95606.09
2023-03-11T06:14:17.116Z,95613.59
2023-03-11T06:16:43.762Z,95603.56
2023-03-11T06:19:10.512Z,95599.41
2023-03-11T06:21:36.937Z,95601.06
2023-03-11T06:24:04.067Z,95595.97
2023-03-11T06:26:30.535Z,95606.16
2023-03-11T06:28:56.991Z,95620.50
2023-03-11T06:31:26.946Z,95629.13
2023-03-11T06:33:58.685Z,95631.69
2023-03-11T06:36:26.129Z,95635.50
2023-03-11T06:38:53.365Z,95646.69
2023-03-11T06:41:20.218Z,95652.63
2023-03-11T06:43:46.860Z,95664.31
2023-03-11T06:46:20.367Z,95666.00
2023-03-11T06:48:47.361Z,95670.19
2023-03-11T06:51:14.257Z,95671.84
2023-03-11T06:53:41.223Z,95659.31
2023-03-11T06:56:10.241Z,95677.03
2023-03-11T06:58:38.292Z,95668.56
2023-03-11T07:01:07.766Z,95673.72
2023-03-11T07:03:34.622Z,95674.50
2023-03-11T07:06:04.962Z,95687.19
2023-03-11T07:08:33.027Z,95683.69
2023-03-11T07:11:05.301Z,95685.44
2023-03-11T07:13:32.106Z,95690.56
2023-03-11T07:16:08.807Z,95690.66
2023-03-11T07:18:35.617Z,95694.16
2023-03-11T07:21:04.030Z,95689.97
2023-03-11T07:23:30.540Z,95697.53
2023-03-11T07:25:56.988Z,95691.59
2023-03-11T07:28:25.317Z,95699.31
2023-03-11T07:30:53.118Z,95705.34
2023-03-11T07:33:20.886Z,95713.06
2023-03-11T07:35:49.223Z,95713.22
2023-03-11T07:38:17.921Z,95720.00
2023-03-11T07:40:44.884Z,95726.97
2023-03-11T07:43:11.524Z,95729.00
2023-03-11T07:45:38.075Z,95727.69
2023-03-11T07:48:05.064Z,95727.13
2023-03-11T07:50:31.607Z,95725.91
2023-03-11T07:52:58.028Z,95726.38
2023-03-11T07:55:24.430Z,95734.03
2023-03-11T07:57:51.662Z,95742.50
2023-03-11T08:00:18.706Z,95755.72
2023-03-11T08:02:45.234Z,95748.59
2023-03-11T08:05:11.875Z,95753.69
2023-03-11T08:07:38.621Z,95758.97
2023-03-11T08:10:05.365Z,95763.66
2023-03-11T08:12:31.904Z,95766.38
2023-03-11T08:14:58.350Z,95775.13
2023-03-11T08:17:24.740Z,95775.34
2023-03-11T08:19:52.245Z,95777.53
2023-03-11T08:22:18.751Z,95780.38
2023-03-11T08:24:45.189Z,95779.91
2023-03-11T08:27:12.279Z,95782.63
2023-03-11T08:29:38.954Z,95781.94
2023-03-11T08:32:05.767Z,95783.75
2023-03-11T08:34:35.025Z,95775.63
2023-03-11T08:37:01.772Z,95787.09
2023-03-11T08:39:28.184Z,95791.28
2023-03-11T08:41:54.626Z,95796.34
2023-03-11T08:44:21.111Z,95794.28
2023-03-11T08:46:47.721Z,95814.75
2023-03-11T08:49:14.151Z,95815.47
2023-03-11T08:51:40.637Z,95815.09
2023-03-11T08:54:07.010Z,95811.34
2023-03-11T08:56:33.510Z,95817.28
2023-03-11T08:58:59.899Z,95821.25
2023-03-11T09:01:26.590Z,95831.06
2023-03-11T09:03:53.000Z,95832.41
2023-03-11T09:06:19.747Z,95833.22
2023-03-11T09:08:47.337Z,95836.44
2023-03-11T09:11:15.423Z,95839.50
2023-03-11T09:13:42.813Z,95856.84
2023-03-11T09:16:13.829Z,95870.34
2023-03-11T09:18:40.733Z,95882.06
2023-03-11T09:21:07.876Z,95885.63
2023-03-11T09:23:34.498Z,95894.09
2023-03-11T09:26:00.979Z,95895.34
2023-03-11T09:28:27.416Z,95885.94
2023-03-11T09:30:53.950Z,95903.34
2023-03-11T09:33:20.489Z,95890.50
2023-03-11T09:35:47.082Z,95892.09
2023-03-11T09:38:13.468Z,95896.97
2023-03-11T09:40:57.310Z,95900.25
2023-03-11T09:43:51.278Z,95902.81
2023-03-11T09:46:45.495Z,95909.41
2023-03-11T09:49:20.278Z,95914.41
2023-03-11T09:51:55.130Z,95915.00
2023-03-11T09:54:22.777Z,95925.91
2023-03-11T09:56:50.054Z,95925.03
2023-03-11T09:59:32.125Z,95918.41
2023-03-11T10:02:00.497Z,95916.38
2023-03-11T10:04:34.077Z,95922.28
2023-03-11T10:07:09.550Z,95909.50
2023-03-11T10:09:40.977Z,95920.69
2023-03-11T10:12:19.448Z,95923.56
2023-03-11T10:15:23.359Z,95926.03
2023-03-11T10:18:16.010Z,95919.72
2023-03-11T10:20:48.082Z,95917.59
2023-03-11T10:23:50.177Z,95911.94
2023-03-11T10:26:26.180Z,95913.75
2023-03-11T10:29:00.033Z,95912.31
2023-03-11T10:31:41.803Z,95910.19
2023-03-11T10:34:15.558Z,95915.44
2023-03-11T10:37:09.418Z,95912.47
2023-03-11T10:39:37.983Z,95923.03
2023-03-11T10:42:06.620Z,95916.41
2023-03-11T10:44:39.063Z,95925.09
2023-03-11T10:47:07.235Z,95923.53
2023-03-11T10:49:33.853Z,95935.38
2023-03-11T10:52:03.079Z,95925.34
2023-03-11T10:54:39.806Z,95931.34
2023-03-11T10:57:19.042Z,95927.31
2023-03-11T10:59:48.389Z,95915.00
2023-03-11T11:02:27.952Z,95915.88
2023-03-11T11:05:06.465Z,95911.38
2023-03-11T11:07:36.253Z,95907.41
2023-03-11T11:10:12.125Z,95907.59
2023-03-11T11:13:01.984Z,95907.09
2023-03-11T11:15:31.288Z,95904.56
2023-03-11T11:18:17.889Z,95912.22
2023-03-11T11:21:01.423Z,95902.44
2023-03-11T11:23:37.197Z,95916.47
2023-03-11T11:26:34.899Z,95913.72
2023-03-11T11:29:10.231Z,95909.28
2023-03-11T11:31:38.321Z,95910.53
2023-03-11T11:34:23.158Z,95911.94
2023-03-11T11:36:50.397Z,95911.63
2023-03-11T11:39:20.295Z,95917.03
2023-03-11T11:41:49.590Z,95922.56
2023-03-11T11:44:21.053Z,95918.06
2023-03-11T11:46:53.162Z,95919.44
2023-03-11T11:49:23.920Z,95925.91
2023-03-11T11:52:10.852Z,95927.50
2023-03-11T11:54:46.231Z,95929.63
2023-03-11T11:57:18.963Z,95930.53
2023-03-11T11:59:46.550Z,95931.16
2023-03-11T12:02:45.584Z,95936.16
2023-03-11T12:05:32.596Z,95933.44
2023-03-11T12:08:21.282Z,95938.28
2023-03-11T12:11:06.036Z,95936.78
2023-03-11T12:14:21.612Z,95930.25
2023-03-11T12:17:01.361Z,95926.28
2023-03-11T12:19:31.948Z,95919.47
2023-03-11T12:22:37.570Z,95924.78
2023-03-11T12:25:26.396Z,95936.00
2023-03-11T12:28:09.064Z,95924.38
2023-03-11T12:30:44.345Z,95922.63
2023-03-11T12:33:27.498Z,95919.06
2023-03-11T12:35:58.864Z,95922.28
2023-03-11T12:38:36.542Z,95929.03
2023-03-11T12:41:15.213Z,95931.44
2023-03-11T12:43:41.577Z,95935.50
2023-03-11T12:46:09.755Z,95930.31
2023-03-11T12:48:43.138Z,95938.59
2023-03-11T12:51:28.282Z,95924.09
2023-03-11T12:53:56.104Z,95939.13
2023-03-11T12:56:44.003Z,95940.94
2023-03-11T12:59:19.721Z,95933.28
2023-03-11T13:02:05.544Z,95934.25
2023-03-11T13:04:47.066Z,95928.22
2023-03-11T13:07:22.861Z,95929.25
2023-03-11T13:10:04.239Z,95925.94
2023-03-11T13:12:45.982Z,95924.47
2023-03-11T13:15:18.112Z,95927.81
2023-03-11T13:18:13.799Z,95933.88
2023-03-11T13:20:42.851Z,95936.50
2023-03-11T13:23:11.935Z,95938.19
2023-03-11T13:25:47.419Z,95927.19
2023-03-11T13:28:20.091Z,95937.94
2023-03-11T13:31:25.106Z,95936.13
2023-03-11T13:33:52.876Z,95941.09
2023-03-11T13:36:23.421Z,95941.09
2023-03-11T13:39:17.582Z,95942.03
2023-03-11T13:41:44.935Z,95944.53
2023-03-11T13:44:26.595Z,95956.31
2023-03-11T13:47:01.681Z,95962.31
2023-03-11T13:49:43.541Z,95963.94
2023-03-11T13:52:15.978Z,95968.03
2023-03-11T13:54:51.703Z,95972.38
2023-03-11T13:57:26.661Z,95967.38
2023-03-11T13:59:54.872Z,95973.34
2023-03-11T14:02:25.486Z,95979.25
2023-03-11T14:04:56.105Z,95972.56
2023-03-11T14:07:30.101Z,95976.75
2023-03-11T14:10:11.832Z,95984.09
2023-03-11T14:12:39.181Z,95984.06
2023-03-11T14:15:08.818Z,95987.38
2023-03-11T14:17:35.322Z,95988.19
2023-03-11T14:20:16.173Z,95995.69
2023-03-11T14:22:51.355Z,95986.34
2023-03-11T14:25:25.373Z,96000.59
2023-03-11T14:27:55.583Z,96006.41
2023-03-11T14:30:26.122Z,96011.22
2023-03-11T14:33:01.928Z,96018.09
2023-03-11T14:35:29.550Z,96011.31
2023-03-11T14:37:56.605Z,96012.91
2023-03-11T14:40:31.980Z,96021.41
2023-03-11T14:43:02.159Z,96022.97
2023-03-11T14:45:38.845Z,96024.69
2023-03-11T14:48:32.279Z,96019.03
2023-03-11T14:51:01.290Z,96027.44
2023-03-11T14:53:35.794Z,96023.13
2023-03-11T14:56:25.255Z,96035.78
2023-03-11T14:59:08.855Z,96027.44
2023-03-11T15:01:40.952Z,96029.97
2023-03-11T15:04:34.383Z,96024.91
2023-03-11T15:07:01.869Z,96030.16
2023-03-11T15:09:29.707Z,96034.47
2023-03-11T15:12:02.627Z,96036.97
2023-03-11T15:14:35.323Z,96042.66
2023-03-11T15:17:37.067Z,96032.50
2023-03-11T15:20:23.763Z,96042.53
2023-03-11T15:23:00.553Z,96044.25
2023-03-11T15:25:29.448Z,96039.09
2023-03-11T15:27:56.706Z,96037.38
2023-03-11T15:30:30.247Z,96037.38
2023-03-11T15:32:58.171Z,96040.59
2023-03-11T15:35:31.453Z,96042.28
2023-03-11T15:38:13.291Z,96049.09
2023-03-11T15:40:45.713Z,96054.13
2023-03-11T15:43:15.497Z,96054.84
2023-03-11T15:45:43.544Z,96060.56
2023-03-11T15:48:10.989Z,96056.31
2023-03-11T15:50:53.200Z,96063.78
2023-03-11T15:53:21.060Z,96062.06
2023-03-11T15:55:48.891Z,96065.44
2023-03-11T15:58:18.105Z,96072.22
2023-03-11T16:00:57.883Z,96071.47
2023-03-11T16:03:24.612Z,96068.06
2023-03-11T16:05:51.045Z,96079.91
2023-03-11T16:08:17.461Z,96081.63
2023-03-11T16:10:44.052Z,96088.41
2023-03-11T16:13:13.881Z,96086.53
2023-03-11T16:15:42.171Z,96087.44
2023-03-11T16:18:10.015Z,96074.72
2023-03-11T16:20:41.122Z,96079.78
2023-03-11T16:23:12.915Z,96078.06
2023-03-11T16:25:40.513Z,96078.66
2023-03-11T16:28:07.549Z,96080.31
2023-03-11T16:30:35.198Z,96085.38
2023-03-11T16:33:04.590Z,96084.50
2023-03-11T16:35:32.019Z,96087.84
2023-03-11T16:37:58.725Z,96081.97
2023-03-11T16:40:27.579Z,96092.25
2023-03-11T16:43:02.672Z,96083.81
2023-03-11T16:45:29.870Z,96100.56
2023-03-11T16:47:56.410Z,96092.88
2023-03-11T16:50:24.337Z,96108.78
2023-03-11T16:52:52.208Z,96108.84
2023-03-11T16:55:19.322Z,96125.66
2023-03-11T16:57:46.006Z,96125.66
2023-03-11T17:00:13.569Z,96130.50
2023-03-11T17:02:40.407Z,96132.09
2023-03-11T17:05:08.376Z,96137.25
2023-03-11T17:07:38.133Z,96135.59
2023-03-11T17:10:06.422Z,96136.38
2023-03-11T17:12:32.823Z,96133.84
2023-03-11T17:15:00.002Z,96133.88
2023-03-11T17:17:26.530Z,96137.06
2023-03-11T17:19:52.976Z,96141.94
2023-03-11T17:22:19.398Z,96144.53
2023-03-11T17:24:45.939Z,96141.81
2023-03-11T17:27:12.555Z,96155.94
2023-03-11T17:29:38.951Z,96139.72
2023-03-11T17:32:06.578Z,96151.28
2023-03-11T17:34:32.996Z,96153.75
2023-03-11T17:36:59.491Z,96161.16
2023-03-11T17:39:25.912Z,96172.09
2023-03-11T17:41:52.341Z,96169.50
2023-03-11T17:44:18.824Z,96180.34
2023-03-11T17:46:45.394Z,96176.09
2023-03-11T17:49:14.734Z,96173.56
2023-03-11T17:51:41.413Z,96180.31
2023-03-11T17:54:07.862Z,96177.88
2023-03-11T17:56:34.540Z,96178.59
2023-03-11T17:59:01.134Z,96180.19
2023-03-11T18:01:28.319Z,96202.38
2023-03-11T18:03:55.168Z,96211.66
2023-03-11T18:06:22.593Z,96216.63
2023-03-11T18:08:49.963Z,96203.19
2023-03-11T18:11:19.381Z,96205.63
2023-03-11T18:13:46.210Z,96205.63
2023-03-11T18:16:19.101Z,96218.19
2023-03-11T18:18:46.352Z,96218.16
2023-03-11T18:21:17.244Z,96223.28
2023-03-11T18:23:44.442Z,96230.81
2023-03-11T18:26:13.192Z,96217.03
2023-03-11T18:28:39.817Z,96222.16
2023-03-11T18:31:12.491Z,96234.03
2023-03-11T18:33:39.928Z,96229.72
2023-03-11T18:36:12.656Z,96239.69
2023-03-11T18:38:39.148Z,96246.50
2023-03-11T18:41:05.584Z,96247.25
2023-03-11T18:43:32.024Z,96241.34
2023-03-11T18:45:58.524Z,96248.03
2023-03-11T18:48:25.037Z,96250.56
2023-03-11T18:50:54.615Z,96252.16
2023-03-11T18:53:21.624Z,96243.69
2023-03-11T18:55:48.525Z,96249.63
2023-03-11T18:58:15.112Z,96240.31
2023-03-11T19:00:41.659Z,96247.13
2023-03-11T19:03:10.816Z,96245.41
2023-03-11T19:05:37.905Z,96251.22
2023-03-11T19:08:05.025Z,96252.75
2023-03-11T19:10:31.578Z,96247.63
2023-03-11T19:12:58.068Z,96252.69
2023-03-11T19:15:24.543Z,96253.38
2023-03-11T19:18:04.287Z,96255.00
2023-03-11T19:20:30.950Z,96254.06
2023-03-11T19:22:57.439Z,96258.97
2023-03-11T19:25:27.530Z,96260.28
2023-03-11T19:27:55.196Z,96273.66
2023-03-11T19:30:22.042Z,96270.09
2023-03-11T19:32:52.744Z,96277.28
2023-03-11T19:35:23.625Z,96269.34
2023-03-11T19:37:56.688Z,96274.28
2023-03-11T19:40:23.656Z,96272.50
2023-03-11T19:42:50.233Z,96267.31
2023-03-11T19:45:16.782Z,96274.78
2023-03-11T19:47:46.380Z,96272.13
2023-03-11T19:50:12.779Z,96274.47
2023-03-11T19:52:40.438Z,96275.22
2023-03-11T19:55:07.627Z,96263.16
2023-03-11T19:57:34.509Z,96272.09
2023-03-11T20:00:01.126Z,96263.44
2023-03-11T20:02:27.813Z,96269.09
2023-03-11T20:04:54.455Z,96276.56
2023-03-11T20:07:21.689Z,96268.84
2023-03-11T20:09:48.525Z,96275.38
2023-03-11T20:12:15.441Z,96270.97
2023-03-11T20:14:42.935Z,96278.63
2023-03-11T20:17:09.709Z,96284.41
2023-03-11T20:19:36.465Z,96278.50
2023-03-11T20:22:03.047Z,96281.91
2023-03-11T20:24:29.585Z,96281.91
2023-03-11T20:26:56.032Z,96274.22
2023-03-11T20:29:22.897Z,96280.91
2023-03-11T20:31:50.070Z,96284.16
2023-03-11T20:34:16.932Z,96284.97
2023-03-11T20:36:43.429Z,96273.97
2023-03-11T20:39:10.705Z,96284.78
2023-03-11T20:41:40.413Z,96283.75
2023-03-11T20:44:09.108Z,96281.03
2023-03-11T20:46:35.657Z,96282.66
2023-03-11T20:49:02.747Z,96280.81
2023-03-11T20:51:29.439Z,96281.63
2023-03-11T20:53:55.935Z,96289.84
2023-03-11T20:56:26.012Z,96290.69
2023-03-11T20:58:55.765Z,96292.31
2023-03-11T21:01:28.815Z,96288.06
2023-03-11T21:03:57.788Z,96299.09
2023-03-11T21:06:27.422Z,96305.00
2023-03-11T21:08:59.141Z,96304.06
2023-03-11T21:11:27.603Z,96304.88
2023-03-11T21:13:55.363Z,96300.59
2023-03-11T21:16:22.677Z,96301.34
2023-03-11T21:18:49.758Z,96300.59
2023-03-11T21:21:17.835Z,96302.22
2023-03-11T21:23:45.180Z,96307.25
2023-03-11T21:26:13.286Z,96301.44
2023-03-11T21:28:40.093Z,96312.38
2023-03-11T21:31:10.893Z,96302.22
2023-03-11T21:33:41.079Z,96301.50
2023-03-11T21:36:09.152Z,96309.16
2023-03-11T21:38:36.172Z,96304.06
2023-03-11T21:41:15.479Z,96303.03
2023-03-11T21:43:42.876Z,96308.91
2023-03-11T21:46:12.626Z,96313.22
2023-03-11T21:48:39.307Z,96306.41
2023-03-11T21:51:06.601Z,96322.44
2023-03-11T21:53:33.167Z,96312.03
2023-03-11T21:55:59.747Z,96329.84
2023-03-11T21:58:27.163Z,96325.56
2023-03-11T22:00:53.925Z,96320.53
2023-03-11T22:03:20.511Z,96315.31
2023-03-11T22:05:47.089Z,96324.63
2023-03-11T22:08:16.708Z,96323.72
2023-03-11T22:10:43.461Z,96321.94
2023-03-11T22:13:10.200Z,96330.22
2023-03-11T22:15:36.927Z,96328.28
2023-03-11T22:18:03.585Z,96328.19
2023-03-11T22:20:30.553Z,96334.78
2023-03-11T22:22:57.176Z,96333.88
2023-03-11T22:25:23.795Z,96335.53
2023-03-11T22:27:50.241Z,96332.09
2023-03-11T22:30:16.990Z,96341.97
2023-03-11T22:32:43.740Z,96337.88
2023-03-11T22:35:10.182Z,96340.50
2023-03-11T22:37:36.580Z,96336.16
2023-03-11T22:40:07.349Z,96332.78
2023-03-11T22:42:34.512Z,96334.59
2023-03-11T22:45:00.947Z,96348.84
2023-03-11T22:47:27.390Z,96340.50
2023-03-11T22:49:53.924Z,96343.16
2023-03-11T22:52:20.390Z,96337.44
2023-03-11T22:54:46.796Z,96340.88
2023-03-11T22:57:13.387Z,96349.59
2023-03-11T22:59:40.088Z,96348.13
2023-03-11T23:02:06.537Z,96350.53
2023-03-11T23:04:33.202Z,96353.16
2023-03-11T23:06:59.689Z,96352.88
2023-03-11T23:09:26.174Z,96360.06
2023-03-11T23:11:53.338Z,96364.94
2023-03-11T23:14:23.739Z,96358.25
2023-03-11T23:16:54.646Z,96365.78
2023-03-11T23:19:21.347Z,96354.13
2023-03-11T23:21:47.751Z,96360.94
2023-03-11T23:24:14.184Z,96360.97
2023-03-11T23:26:40.681Z,96363.72
2023-03-11T23:29:07.112Z,96366.84
2023-03-11T23:31:33.636Z,96368.53
2023-03-11T23:34:00.094Z,96375.25
2023-03-11T23:36:30.728Z,96372.97
2023-03-11T23:38:58.262Z,96368.84
2023-03-11T23:41:25.896Z,96374.63
2023-03-11T23:43:52.617Z,96373.63
2023-03-11T23:46:19.107Z,96373.03
2023-03-11T23:48:45.679Z,96377.00
2023-03-11T23:51:12.261Z,96369.38
2023-03-11T23:53:39.545Z,96376.88
2023-03-11T23:56:11.556Z,96383.69
2023-03-11T23:58:38.207Z,96381.16
